44N weather

Public forecast

Using degrees Fahrenheit for public forecast. Weather courtesy of forecast.io.

Closest aviation weather report (METAR) to Sky Acres Airport

Closest report is Dutchess County Airport, 8.2 nm (15.1 km) SW. Retrieved 2020/08/14 21:53 UTC (47 minutes ago):

KPOU 142153Z AUTO 05006KT 10SM CLR 31/16 A2997 RMK AO2 SLP144 T03060161

Closest aviation forecast (TAF) to Sky Acres Airport

Closest forecast is Dutchess County Airport, 8.2 nm (15.1 km) SW. Retrieved 2020/08/14 18:24 UTC (4 hours ago):

TAF KPOU 141723Z 1418/1518 04006KT P6SM FEW070 BKN250 FM150100 00000KT P6SM FEW070 FEW250 FM151400 05006KT P6SM FEW070